Time;durP1;ratioP1;P1;durP2;ratioP2;P2;SDS_P1;SDS_P2;PMS_P1;PMS_P2;Temp;Humidity;BMP_temperature;BMP_pressure;BME280_temperature;BME280_humidity;BME280_pressure;Samples;Min_cycle;Max_cycle;Signal;HPM_P1;HPM_P2
2023/03/08 00:01:01;;;;;;;5.35;2.15;;;;;;;;;;4993336;28;20380;-76
2023/03/08 00:03:29;;;;;;;6.88;2.17;;;;;;;;;;4986545;28;20030;-77
2023/03/08 00:05:55;;;;;;;11.43;1.95;;;;;;;;;;4988493;28;20030;-77
2023/03/08 00:08:21;;;;;;;8.00;1.95;;;;;;;;;;4985665;28;20132;-77
2023/03/08 00:10:47;;;;;;;6.68;1.63;;;;;;;;;;4994274;28;20043;-77
2023/03/08 00:13:13;;;;;;;5.60;1.95;;;;;;;;;;4982756;28;20023;-77
2023/03/08 00:15:39;;;;;;;8.10;2.13;;;;;;;;;;4990330;28;20084;-77
2023/03/08 00:18:05;;;;;;;4.22;2.10;;;;;;;;;;4986236;28;20027;-77
2023/03/08 00:20:32;;;;;;;6.93;2.00;;;;;;;;;;4978807;28;20042;-76
2023/03/08 00:22:58;;;;;;;5.15;1.95;;;;;;;;;;4988302;28;20041;-77
2023/03/08 00:25:24;;;;;;;7.45;2.08;;;;;;;;;;4972716;28;20049;-76
2023/03/08 00:27:50;;;;;;;4.68;2.42;;;;;;;;;;4988522;28;20447;-76
2023/03/08 00:30:16;;;;;;;10.05;2.55;;;;;;;;;;4969297;28;20391;-76
2023/03/08 00:32:43;;;;;;;9.77;2.35;;;;;;;;;;4990828;28;20038;-76
2023/03/08 00:35:09;;;;;;;6.65;2.15;;;;;;;;;;4971027;28;20034;-77
2023/03/08 00:37:35;;;;;;;5.00;1.85;;;;;;;;;;4990339;28;20037;-76
2023/03/08 00:40:01;;;;;;;5.85;1.80;;;;;;;;;;4981667;28;20066;-76
2023/03/08 00:42:27;;;;;;;5.25;1.52;;;;;;;;;;4988434;28;20058;-76
2023/03/08 00:44:53;;;;;;;6.97;1.35;;;;;;;;;;4988117;28;20038;-77
2023/03/08 00:47:19;;;;;;;4.43;1.08;;;;;;;;;;4985925;28;20038;-76
2023/03/08 00:49:45;;;;;;;5.00;1.35;;;;;;;;;;4983607;28;20050;-77
2023/03/08 00:52:11;;;;;;;3.90;1.20;;;;;;;;;;4970243;28;20042;-77
2023/03/08 00:54:37;;;;;;;5.13;1.20;;;;;;;;;;4985127;28;20059;-77
2023/03/08 00:57:04;;;;;;;5.95;1.23;;;;;;;;;;4977226;28;20058;-76
2023/03/08 00:59:30;;;;;;;3.97;1.05;;;;;;;;;;4988815;28;20129;-77
2023/03/08 01:01:56;;;;;;;4.30;1.52;;;;;;;;;;4967914;28;20034;-77
2023/03/08 01:04:22;;;;;;;3.15;1.15;;;;;;;;;;4989254;28;20053;-77
2023/03/08 01:06:48;;;;;;;2.67;1.42;;;;;;;;;;4986376;28;20035;-78
2023/03/08 01:09:14;;;;;;;3.03;1.42;;;;;;;;;;4990836;28;20038;-77
2023/03/08 01:11:40;;;;;;;6.75;1.20;;;;;;;;;;4987024;28;20141;-77
2023/03/08 01:14:09;;;;;;;3.45;1.65;;;;;;;;;;4988361;28;20026;-76
2023/03/08 01:16:36;;;;;;;4.45;1.90;;;;;;;;;;4990039;28;20038;-76
2023/03/08 01:19:04;;;;;;;4.82;1.50;;;;;;;;;;4994006;28;20049;-76
2023/03/08 01:21:30;;;;;;;3.63;1.67;;;;;;;;;;4990983;28;20038;-76
2023/03/08 01:23:56;;;;;;;9.60;1.67;;;;;;;;;;4994208;28;20025;-76
2023/03/08 01:26:24;;;;;;;4.15;1.33;;;;;;;;;;4988682;28;20038;-76
2023/03/08 01:29:13;;;;;;;5.30;1.73;;;;;;;;;;4975415;28;20042;-75
2023/03/08 01:31:58;;;;;;;10.13;2.05;;;;;;;;;;4910230;29;20409;-76
2023/03/08 01:34:24;;;;;;;4.03;2.20;;;;;;;;;;4914758;29;20036;-75
2023/03/08 01:36:53;;;;;;;4.32;1.33;;;;;;;;;;4913074;29;20975;-76
2023/03/08 01:39:22;;;;;;;6.85;1.63;;;;;;;;;;4908189;29;20474;-74
2023/03/08 01:41:48;;;;;;;5.10;1.42;;;;;;;;;;4886601;28;20446;-76
2023/03/08 01:44:15;;;;;;;2.85;1.58;;;;;;;;;;4989458;28;20054;-75
2023/03/08 01:46:41;;;;;;;4.50;1.60;;;;;;;;;;4985779;28;20030;-75
2023/03/08 01:49:10;;;;;;;6.53;1.52;;;;;;;;;;4986089;28;20037;-76
2023/03/08 01:51:36;;;;;;;3.92;1.55;;;;;;;;;;4991184;28;20290;-75
2023/03/08 01:54:06;;;;;;;3.53;1.60;;;;;;;;;;4988929;28;20022;-75
2023/03/08 01:56:32;;;;;;;3.80;1.60;;;;;;;;;;4993489;28;20043;-75
2023/03/08 01:59:00;;;;;;;10.00;2.03;;;;;;;;;;4992947;28;20379;-76
2023/03/08 02:01:26;;;;;;;6.07;1.30;;;;;;;;;;4991433;28;20498;-76
2023/03/08 02:03:52;;;;;;;10.77;1.60;;;;;;;;;;4988115;28;20027;-76
2023/03/08 02:06:19;;;;;;;3.60;1.40;;;;;;;;;;4965579;28;20058;-76
2023/03/08 02:08:45;;;;;;;7.00;1.88;;;;;;;;;;4994911;28;20130;-76
2023/03/08 02:11:13;;;;;;;7.75;2.33;;;;;;;;;;4992808;28;20061;-76
2023/03/08 02:13:39;;;;;;;10.52;2.45;;;;;;;;;;4986630;28;20324;-76
2023/03/08 02:16:07;;;;;;;10.32;3.33;;;;;;;;;;4985695;28;20038;-77
2023/03/08 02:18:33;;;;;;;8.18;2.88;;;;;;;;;;4981296;28;20039;-75
2023/03/08 02:20:59;;;;;;;13.90;3.45;;;;;;;;;;4976506;28;20049;-75
2023/03/08 02:23:25;;;;;;;7.38;2.45;;;;;;;;;;4979878;28;20034;-73
2023/03/08 02:25:52;;;;;;;8.70;2.67;;;;;;;;;;4992987;28;20604;-74
2023/03/08 02:28:20;;;;;;;9.63;2.67;;;;;;;;;;4989634;28;20026;-74
2023/03/08 02:30:46;;;;;;;5.55;1.98;;;;;;;;;;4988298;28;20042;-74
2023/03/08 02:33:12;;;;;;;8.98;2.80;;;;;;;;;;4990430;28;20467;-74
2023/03/08 02:35:41;;;;;;;6.85;1.60;;;;;;;;;;4961412;28;20039;-74
2023/03/08 02:38:07;;;;;;;5.82;1.60;;;;;;;;;;4982526;28;20046;-76
2023/03/08 02:40:33;;;;;;;3.67;1.50;;;;;;;;;;4985067;28;20031;-75
2023/03/08 02:42:59;;;;;;;4.45;1.48;;;;;;;;;;4964517;28;20046;-75
2023/03/08 02:45:25;;;;;;;8.90;1.67;;;;;;;;;;4988619;28;20155;-76
2023/03/08 02:47:51;;;;;;;4.05;1.65;;;;;;;;;;4987634;28;20022;-75
2023/03/08 02:50:17;;;;;;;3.15;1.77;;;;;;;;;;4988235;28;20626;-75
2023/03/08 02:52:43;;;;;;;5.78;1.58;;;;;;;;;;4991059;28;20038;-75
2023/03/08 02:55:10;;;;;;;8.60;2.13;;;;;;;;;;4990232;28;20058;-75
2023/03/08 02:57:36;;;;;;;10.85;2.30;;;;;;;;;;4973647;28;20085;-75
2023/03/08 03:00:02;;;;;;;5.38;1.60;;;;;;;;;;4986303;28;20039;-75
2023/03/08 03:02:28;;;;;;;3.60;1.80;;;;;;;;;;5000780;28;20068;-75
2023/03/08 03:04:54;;;;;;;5.55;1.73;;;;;;;;;;4991879;28;20042;-75
2023/03/08 03:07:20;;;;;;;5.47;1.83;;;;;;;;;;4990417;28;20058;-75
2023/03/08 03:09:46;;;;;;;5.80;1.90;;;;;;;;;;4988741;28;20038;-75
2023/03/08 03:12:12;;;;;;;5.70;1.38;;;;;;;;;;4965933;28;20494;-75
2023/03/08 03:14:38;;;;;;;3.38;1.33;;;;;;;;;;4958985;28;20439;-76
2023/03/08 03:17:05;;;;;;;10.13;1.45;;;;;;;;;;4977007;28;20041;-75
2023/03/08 03:19:31;;;;;;;2.63;1.40;;;;;;;;;;4980540;28;20030;-74
2023/03/08 03:21:57;;;;;;;4.32;1.10;;;;;;;;;;4966225;28;20150;-75
2023/03/08 03:24:23;;;;;;;5.32;0.95;;;;;;;;;;4992059;28;20039;-75
2023/03/08 03:26:52;;;;;;;4.07;1.00;;;;;;;;;;4990644;28;20081;-75
2023/03/08 03:29:18;;;;;;;7.53;1.15;;;;;;;;;;4989248;28;20042;-74
2023/03/08 03:31:44;;;;;;;2.78;1.00;;;;;;;;;;4985327;28;20466;-74
2023/03/08 03:34:10;;;;;;;4.35;1.48;;;;;;;;;;4989888;28;20049;-74
2023/03/08 03:36:36;;;;;;;2.90;1.55;;;;;;;;;;4985650;28;20039;-74
2023/03/08 03:39:03;;;;;;;6.65;1.38;;;;;;;;;;4955083;28;20094;-74
2023/03/08 03:41:29;;;;;;;4.53;1.10;;;;;;;;;;4985496;28;20124;-74
2023/03/08 03:43:55;;;;;;;7.47;1.30;;;;;;;;;;4989694;28;20386;-74
2023/03/08 03:46:22;;;;;;;4.65;1.20;;;;;;;;;;4991260;28;20058;-74
2023/03/08 03:48:48;;;;;;;4.70;0.98;;;;;;;;;;4986001;28;20038;-74
2023/03/08 03:51:18;;;;;;;5.57;1.05;;;;;;;;;;4970366;28;20041;-74
2023/03/08 03:53:45;;;;;;;7.90;1.02;;;;;;;;;;4989657;28;20034;-74
2023/03/08 03:56:21;;;;;;;3.38;0.93;;;;;;;;;;4990802;28;20042;-74
2023/03/08 03:58:47;;;;;;;2.85;0.85;;;;;;;;;;4984971;28;20104;-74
2023/03/08 04:01:19;;;;;;;5.47;0.90;;;;;;;;;;4990238;28;20053;-74
2023/03/08 04:03:46;;;;;;;5.97;1.33;;;;;;;;;;4988484;28;20026;-74
2023/03/08 04:06:17;;;;;;;6.45;1.23;;;;;;;;;;4972848;28;20026;-75
2023/03/08 04:08:43;;;;;;;3.53;1.17;;;;;;;;;;4987404;28;20037;-75
2023/03/08 04:11:10;;;;;;;3.05;0.90;;;;;;;;;;4989218;28;20042;-75
2023/03/08 04:13:36;;;;;;;6.55;0.90;;;;;;;;;;4989082;28;20022;-74
2023/03/08 04:16:13;;;;;;;8.75;1.10;;;;;;;;;;4984877;28;20035;-74
2023/03/08 04:18:39;;;;;;;3.30;1.30;;;;;;;;;;4987094;28;20148;-75
2023/03/08 04:21:05;;;;;;;7.57;1.13;;;;;;;;;;4987565;28;20392;-74
2023/03/08 04:23:31;;;;;;;1.48;1.10;;;;;;;;;;4984406;28;20023;-74
2023/03/08 04:25:58;;;;;;;3.22;0.98;;;;;;;;;;4972929;28;20035;-74
2023/03/08 04:28:24;;;;;;;6.07;1.42;;;;;;;;;;4988470;28;20037;-74
2023/03/08 04:30:50;;;;;;;5.53;1.10;;;;;;;;;;4983826;28;20031;-74
2023/03/08 04:33:16;;;;;;;1.65;0.70;;;;;;;;;;4966767;28;20039;-74
2023/03/08 04:35:42;;;;;;;3.90;1.00;;;;;;;;;;4987467;28;20030;-73
2023/03/08 04:38:08;;;;;;;4.03;1.17;;;;;;;;;;4989339;28;20030;-74
2023/03/08 04:41:00;;;;;;;7.35;1.00;;;;;;;;;;4985860;28;20049;-73
2023/03/08 04:43:20;;;;;;;7.10;0.90;;;;;;;;;;4990733;28;20049;-74
2023/03/08 04:45:46;;;;;;;3.35;0.90;;;;;;;;;;4981883;28;20034;-74
2023/03/08 04:48:12;;;;;;;3.15;0.95;;;;;;;;;;4968669;28;20034;-74
2023/03/08 04:50:38;;;;;;;4.03;0.98;;;;;;;;;;4986217;28;20046;-75
2023/03/08 04:53:04;;;;;;;4.47;1.00;;;;;;;;;;4970467;28;20042;-76
2023/03/08 04:55:30;;;;;;;2.88;1.10;;;;;;;;;;4984112;28;20050;-75
2023/03/08 04:57:56;;;;;;;2.97;1.08;;;;;;;;;;4989917;28;20026;-75
2023/03/08 05:00:23;;;;;;;4.05;1.35;;;;;;;;;;4984036;28;20065;-75
2023/03/08 05:02:49;;;;;;;4.38;1.30;;;;;;;;;;4983492;28;20018;-76
2023/03/08 05:05:15;;;;;;;6.18;1.30;;;;;;;;;;4984627;28;20031;-75
2023/03/08 05:07:41;;;;;;;3.05;1.02;;;;;;;;;;4990390;28;20035;-77
2023/03/08 05:10:07;;;;;;;3.10;1.20;;;;;;;;;;4985549;28;20068;-76
2023/03/08 05:12:33;;;;;;;3.65;1.02;;;;;;;;;;4972522;28;20447;-75
2023/03/08 05:14:59;;;;;;;4.95;1.15;;;;;;;;;;4986232;28;20035;-75
2023/03/08 05:17:26;;;;;;;2.08;1.02;;;;;;;;;;5003923;28;20037;-75
2023/03/08 05:19:52;;;;;;;6.25;1.73;;;;;;;;;;4987106;28;20487;-75
2023/03/08 05:22:18;;;;;;;12.48;1.67;;;;;;;;;;4988341;28;20038;-76
2023/03/08 05:24:45;;;;;;;2.83;0.98;;;;;;;;;;4985375;28;20169;-75
2023/03/08 05:27:11;;;;;;;3.50;1.13;;;;;;;;;;4984191;28;20038;-76
2023/03/08 05:29:37;;;;;;;3.03;1.02;;;;;;;;;;4983907;28;20065;-75
2023/03/08 05:32:03;;;;;;;4.60;1.05;;;;;;;;;;4965353;28;20101;-75
2023/03/08 05:34:29;;;;;;;4.25;1.05;;;;;;;;;;4987468;28;20099;-75
2023/03/08 05:36:56;;;;;;;3.97;0.98;;;;;;;;;;4982684;28;20464;-76
2023/03/08 05:39:22;;;;;;;5.90;0.98;;;;;;;;;;4985676;28;20078;-75
2023/03/08 05:41:48;;;;;;;6.07;1.27;;;;;;;;;;4983194;28;20034;-75
2023/03/08 05:44:14;;;;;;;6.18;1.17;;;;;;;;;;4971490;28;20035;-75
2023/03/08 05:46:40;;;;;;;9.77;1.52;;;;;;;;;;4974354;28;20049;-76
2023/03/08 05:49:06;;;;;;;11.68;5.00;;;;;;;;;;4971193;28;20105;-75
2023/03/08 05:51:32;;;;;;;11.07;4.30;;;;;;;;;;4985264;28;20166;-76
2023/03/08 05:53:58;;;;;;;2.08;1.23;;;;;;;;;;4977592;28;20039;-74
2023/03/08 05:56:24;;;;;;;2.20;1.05;;;;;;;;;;4989138;28;20054;-74
2023/03/08 05:58:51;;;;;;;5.20;1.30;;;;;;;;;;4984721;28;20050;-74
2023/03/08 06:01:24;;;;;;;1.90;0.90;;;;;;;;;;4979754;28;20038;-75
2023/03/08 06:03:52;;;;;;;1.67;0.95;;;;;;;;;;4984129;28;20034;-75
2023/03/08 06:06:19;;;;;;;1.92;0.90;;;;;;;;;;4983448;28;20074;-75
2023/03/08 06:08:45;;;;;;;4.43;1.00;;;;;;;;;;4986805;28;20073;-76
2023/03/08 06:11:11;;;;;;;3.92;2.20;;;;;;;;;;4991354;28;20118;-79
2023/03/08 06:13:37;;;;;;;8.30;1.65;;;;;;;;;;4985245;28;20035;-75
2023/03/08 06:16:03;;;;;;;4.22;1.15;;;;;;;;;;4986791;28;20034;-75
2023/03/08 06:18:30;;;;;;;4.88;0.70;;;;;;;;;;4992766;28;20161;-74
2023/03/08 06:20:57;;;;;;;1.10;0.70;;;;;;;;;;4984225;28;20026;-74
2023/03/08 06:23:23;;;;;;;6.75;1.02;;;;;;;;;;4987389;28;20031;-74
2023/03/08 06:25:49;;;;;;;5.93;1.80;;;;;;;;;;4984167;28;20034;-74
2023/03/08 06:28:16;;;;;;;8.80;2.28;;;;;;;;;;4986260;28;20039;-75
2023/03/08 06:30:42;;;;;;;3.17;1.48;;;;;;;;;;4986567;28;20069;-74
2023/03/08 06:33:08;;;;;;;2.08;1.08;;;;;;;;;;4973234;28;20109;-76
2023/03/08 06:35:34;;;;;;;8.10;2.65;;;;;;;;;;4983981;28;20034;-75
2023/03/08 06:38:00;;;;;;;8.32;4.10;;;;;;;;;;4987138;28;20054;-75
2023/03/08 06:40:26;;;;;;;9.15;2.95;;;;;;;;;;4989693;28;20387;-75
2023/03/08 06:42:52;;;;;;;9.00;2.83;;;;;;;;;;4989972;28;20074;-74
2023/03/08 06:45:18;;;;;;;5.18;3.67;;;;;;;;;;4981391;28;20391;-80
2023/03/08 06:47:44;;;;;;;18.48;4.68;;;;;;;;;;4982258;28;20097;-78
2023/03/08 06:50:10;;;;;;;6.15;4.53;;;;;;;;;;4985540;28;20467;-78
2023/03/08 06:52:37;;;;;;;5.80;3.58;;;;;;;;;;4979817;28;20045;-80
2023/03/08 06:55:03;;;;;;;15.93;3.70;;;;;;;;;;4985338;28;20422;-80
2023/03/08 06:57:29;;;;;;;7.47;3.95;;;;;;;;;;4977503;28;20018;-77
2023/03/08 06:59:55;;;;;;;6.82;4.07;;;;;;;;;;4977084;28;20333;-78
2023/03/08 07:02:21;;;;;;;6.13;3.53;;;;;;;;;;4980695;28;20069;-76
2023/03/08 07:04:47;;;;;;;8.38;3.03;;;;;;;;;;4972123;28;20037;-74
2023/03/08 07:07:13;;;;;;;6.85;2.70;;;;;;;;;;4977396;28;20038;-77
2023/03/08 07:09:40;;;;;;;6.25;2.05;;;;;;;;;;4973967;28;20038;-75
2023/03/08 07:12:06;;;;;;;3.85;2.00;;;;;;;;;;4967768;28;20042;-74
2023/03/08 07:14:32;;;;;;;6.30;2.20;;;;;;;;;;4985408;28;20154;-75
2023/03/08 07:16:58;;;;;;;8.73;2.83;;;;;;;;;;4987499;28;20061;-74
2023/03/08 07:19:24;;;;;;;6.70;2.45;;;;;;;;;;4965293;28;20042;-75
2023/03/08 07:21:50;;;;;;;9.73;5.50;;;;;;;;;;4976336;28;20035;-76
2023/03/08 07:24:16;;;;;;;9.07;3.00;;;;;;;;;;4977101;28;20105;-75
2023/03/08 07:26:42;;;;;;;4.68;2.33;;;;;;;;;;4975629;28;20058;-75
2023/03/08 07:29:08;;;;;;;8.60;2.95;;;;;;;;;;4976193;28;20031;-76
2023/03/08 07:31:35;;;;;;;3.90;2.90;;;;;;;;;;4989343;28;20039;-74
2023/03/08 07:34:01;;;;;;;6.63;2.70;;;;;;;;;;4969444;28;20106;-76
2023/03/08 07:36:27;;;;;;;4.40;3.38;;;;;;;;;;4978752;28;20443;-77
2023/03/08 07:38:53;;;;;;;6.22;3.00;;;;;;;;;;4985107;28;20395;-77
2023/03/08 07:41:19;;;;;;;15.50;3.42;;;;;;;;;;4984568;28;20069;-75
2023/03/08 07:43:47;;;;;;;12.57;6.53;;;;;;;;;;4977423;28;20038;-76
2023/03/08 07:46:14;;;;;;;19.65;8.02;;;;;;;;;;4987334;28;20783;-77
2023/03/08 07:48:40;;;;;;;11.20;7.07;;;;;;;;;;4985077;28;20027;-77
2023/03/08 07:51:08;;;;;;;11.00;4.90;;;;;;;;;;4968893;28;20038;-77
2023/03/08 07:53:34;;;;;;;10.43;3.40;;;;;;;;;;4979169;28;20034;-76
2023/03/08 07:56:00;;;;;;;7.45;3.47;;;;;;;;;;4974814;28;20432;-76
2023/03/08 07:58:27;;;;;;;15.25;3.50;;;;;;;;;;4978577;28;20038;-74
2023/03/08 08:00:53;;;;;;;9.70;3.08;;;;;;;;;;4981355;28;20025;-73
2023/03/08 08:03:19;;;;;;;5.72;2.80;;;;;;;;;;4965920;28;20030;-75
2023/03/08 08:05:46;;;;;;;3.47;2.80;;;;;;;;;;4990087;28;20034;-75
2023/03/08 08:08:12;;;;;;;5.38;3.35;;;;;;;;;;4988108;28;20439;-75
2023/03/08 08:10:41;;;;;;;5.28;3.15;;;;;;;;;;4988612;28;20034;-75
2023/03/08 08:13:07;;;;;;;3.85;2.60;;;;;;;;;;4989742;28;20039;-75
2023/03/08 08:15:33;;;;;;;5.40;3.08;;;;;;;;;;4982885;28;20486;-76
2023/03/08 08:18:00;;;;;;;5.43;2.80;;;;;;;;;;4988153;28;20027;-77
2023/03/08 08:20:27;;;;;;;7.60;3.55;;;;;;;;;;4981645;28;20061;-75
2023/03/08 08:22:53;;;;;;;6.60;2.85;;;;;;;;;;4990468;28;20037;-76
2023/03/08 08:25:20;;;;;;;8.02;2.58;;;;;;;;;;4986538;28;20038;-76
2023/03/08 08:27:46;;;;;;;5.53;2.45;;;;;;;;;;4992032;28;20503;-77
2023/03/08 08:30:13;;;;;;;4.50;2.63;;;;;;;;;;4983734;28;20538;-76
2023/03/08 08:32:39;;;;;;;6.15;2.80;;;;;;;;;;4988075;28;20070;-75
2023/03/08 08:35:06;;;;;;;6.80;2.80;;;;;;;;;;4980215;28;20459;-76
2023/03/08 08:37:32;;;;;;;6.50;2.83;;;;;;;;;;4987322;28;20054;-75
2023/03/08 08:39:59;;;;;;;6.68;2.63;;;;;;;;;;4971944;28;20112;-75
2023/03/08 08:42:25;;;;;;;5.95;2.58;;;;;;;;;;4979529;28;20022;-75
2023/03/08 08:44:54;;;;;;;4.95;2.97;;;;;;;;;;4971197;28;20035;-74
2023/03/08 08:47:20;;;;;;;8.40;3.08;;;;;;;;;;4981391;28;20038;-74
2023/03/08 08:49:46;;;;;;;6.22;2.30;;;;;;;;;;4988865;28;20057;-74
2023/03/08 08:52:12;;;;;;;8.32;2.30;;;;;;;;;;4989054;28;20042;-76
2023/03/08 08:54:38;;;;;;;7.03;2.15;;;;;;;;;;4984876;28;20049;-76
2023/03/08 08:57:05;;;;;;;4.32;2.40;;;;;;;;;;4985794;28;20058;-75
2023/03/08 08:59:32;;;;;;;5.93;2.78;;;;;;;;;;4987885;28;20027;-75
2023/03/08 09:01:58;;;;;;;5.47;2.10;;;;;;;;;;4977441;28;20157;-74
2023/03/08 09:04:24;;;;;;;3.53;2.00;;;;;;;;;;4989104;28;20479;-75
2023/03/08 09:06:52;;;;;;;3.63;2.10;;;;;;;;;;4987785;28;20026;-77
2023/03/08 09:09:18;;;;;;;3.80;2.25;;;;;;;;;;4988592;28;20046;-77
2023/03/08 09:11:46;;;;;;;4.95;1.73;;;;;;;;;;4988336;28;20035;-75
2023/03/08 09:14:12;;;;;;;3.85;1.92;;;;;;;;;;4977042;28;20038;-75
2023/03/08 09:16:38;;;;;;;8.20;2.53;;;;;;;;;;4985405;28;20054;-74
2023/03/08 09:19:04;;;;;;;7.45;2.38;;;;;;;;;;4985650;28;20065;-75
2023/03/08 09:21:31;;;;;;;4.68;2.38;;;;;;;;;;4973454;28;20031;-75
2023/03/08 09:24:01;;;;;;;6.40;1.92;;;;;;;;;;4987239;28;20118;-77
2023/03/08 09:26:31;;;;;;;4.95;1.83;;;;;;;;;;4955780;28;21907;-76
2023/03/08 09:29:03;;;;;;;4.80;1.85;;;;;;;;;;4988608;28;20046;-77
2023/03/08 09:31:30;;;;;;;3.83;1.70;;;;;;;;;;4970588;28;20455;-76
2023/03/08 09:33:56;;;;;;;1.75;1.40;;;;;;;;;;4980966;28;20023;-77
2023/03/08 09:36:22;;;;;;;4.93;2.22;;;;;;;;;;4990900;28;20026;-77
2023/03/08 09:38:49;;;;;;;4.75;1.60;;;;;;;;;;4988755;28;20047;-74
2023/03/08 09:41:20;;;;;;;5.97;1.67;;;;;;;;;;4975794;28;20030;-75
2023/03/08 09:44:04;;;;;;;2.70;1.15;;;;;;;;;;4988721;28;20026;-73
2023/03/08 09:46:33;;;;;;;3.88;1.13;;;;;;;;;;4985335;28;20375;-74
2023/03/08 09:49:01;;;;;;;3.75;0.85;;;;;;;;;;4993279;28;20609;-75
2023/03/08 09:51:33;;;;;;;4.75;1.50;;;;;;;;;;4993361;28;20073;-76
2023/03/08 09:54:01;;;;;;;2.08;1.55;;;;;;;;;;4985658;28;20081;-77
2023/03/08 09:56:33;;;;;;;9.43;3.55;;;;;;;;;;4989715;28;20683;-80
2023/03/08 09:59:13;;;;;;;5.82;1.48;;;;;;;;;;4977635;28;20043;-83
2023/03/08 10:02:05;;;;;;;2.63;1.23;;;;;;;;;;4959641;28;20058;-77
2023/03/08 10:04:50;;;;;;;1.92;0.93;;;;;;;;;;4983174;28;20086;-77
2023/03/08 10:07:22;;;;;;;2.63;0.98;;;;;;;;;;4985340;28;20031;-81
2023/03/08 10:09:55;;;;;;;1.23;0.90;;;;;;;;;;4987628;28;20081;-80
2023/03/08 10:12:23;;;;;;;2.08;0.70;;;;;;;;;;4983759;28;20106;-79
2023/03/08 10:14:52;;;;;;;4.63;1.30;;;;;;;;;;4987542;28;20575;-79
2023/03/08 10:17:23;;;;;;;2.22;0.90;;;;;;;;;;4981282;28;20069;-79
2023/03/08 10:19:49;;;;;;;1.67;0.82;;;;;;;;;;4988564;28;20030;-79
2023/03/08 10:22:19;;;;;;;3.55;1.00;;;;;;;;;;4986142;28;20415;-78
2023/03/08 10:24:49;;;;;;;3.75;0.73;;;;;;;;;;4986274;28;20065;-76
2023/03/08 10:27:21;;;;;;;3.58;1.05;;;;;;;;;;4985736;28;20062;-78
2023/03/08 10:29:48;;;;;;;4.53;0.80;;;;;;;;;;4978337;28;20026;-76
2023/03/08 10:32:13;;;;;;;2.20;0.80;;;;;;;;;;4978700;28;20443;-75
2023/03/08 10:34:40;;;;;;;22.00;9.80;;;;;;;;;;4976733;28;20093;-73
2023/03/08 10:37:07;;;;;;;6.75;2.65;;;;;;;;;;4983233;28;20072;-74
2023/03/08 10:39:35;;;;;;;3.90;1.27;;;;;;;;;;4984094;28;20416;-76
2023/03/08 10:42:05;;;;;;;2.80;1.00;;;;;;;;;;4987246;28;20037;-73
2023/03/08 10:44:44;;;;;;;1.75;0.68;;;;;;;;;;4982854;28;20054;-72
2023/03/08 10:47:29;;;;;;;1.52;0.95;;;;;;;;;;4982675;28;20121;-73
2023/03/08 10:50:15;;;;;;;3.13;0.82;;;;;;;;;;4964697;28;20466;-76
2023/03/08 10:52:41;;;;;;;4.05;0.80;;;;;;;;;;4985265;28;20046;-77
2023/03/08 10:55:21;;;;;;;4.20;1.05;;;;;;;;;;4981886;28;20042;-78
2023/03/08 10:57:54;;;;;;;1.80;0.80;;;;;;;;;;5000219;28;20030;-76
2023/03/08 11:00:30;;;;;;;2.40;0.70;;;;;;;;;;4977963;28;20518;-76
2023/03/08 11:03:22;;;;;;;2.40;0.70;;;;;;;;;;4990826;28;20032;-77
2023/03/08 11:05:48;;;;;;;;;;;;;;;;;;4989580;28;20041;-78
2023/03/08 11:08:19;;;;;;;1.92;0.95;;;;;;;;;;4992189;28;19945;-78
2023/03/08 11:10:45;;;;;;;1.48;0.60;;;;;;;;;;4987132;28;20109;-77
2023/03/08 11:13:25;;;;;;;3.10;0.80;;;;;;;;;;4991922;28;20108;-77
2023/03/08 11:16:10;;;;;;;3.33;1.20;;;;;;;;;;4969340;28;20384;-78
2023/03/08 11:18:36;;;;;;;6.43;0.65;;;;;;;;;;4992622;28;20569;-76
2023/03/08 11:21:26;;;;;;;3.10;1.23;;;;;;;;;;4993460;28;20014;-78
2023/03/08 11:23:58;;;;;;;2.05;0.85;;;;;;;;;;4991714;28;20034;-77
2023/03/08 11:26:25;;;;;;;5.90;1.02;;;;;;;;;;4990798;28;20037;-77
2023/03/08 11:29:02;;;;;;;1.70;1.00;;;;;;;;;;4990837;28;20027;-77
2023/03/08 11:31:33;;;;;;;2.13;1.05;;;;;;;;;;4981918;28;20058;-77
2023/03/08 11:34:07;;;;;;;3.35;0.80;;;;;;;;;;4982704;28;20041;-77
2023/03/08 11:36:33;;;;;;;2.65;0.70;;;;;;;;;;4989626;28;20077;-77
2023/03/08 11:39:18;;;;;;;3.50;0.60;;;;;;;;;;4991610;28;20479;-78
2023/03/08 11:42:11;;;;;;;2.92;0.73;;;;;;;;;;4987343;28;20042;-77
2023/03/08 11:44:39;;;;;;;0.68;0.60;;;;;;;;;;4988854;28;20459;-77
2023/03/08 11:47:23;;;;;;;1.30;0.55;;;;;;;;;;4977146;28;20473;-78
2023/03/08 11:49:54;;;;;;;1.10;0.60;;;;;;;;;;4985398;28;20036;-78
2023/03/08 11:52:32;;;;;;;1.10;0.70;;;;;;;;;;4987855;28;20046;-77
2023/03/08 11:55:21;;;;;;;4.22;0.82;;;;;;;;;;4987428;28;20050;-77
2023/03/08 11:57:51;;;;;;;1.85;0.88;;;;;;;;;;4948013;28;20070;-76
2023/03/08 12:00:32;;;;;;;1.95;0.63;;;;;;;;;;4986880;28;20121;-76
2023/03/08 12:02:59;;;;;;;1.23;0.70;;;;;;;;;;4979327;28;20173;-79
2023/03/08 12:05:30;;;;;;;1.27;1.17;;;;;;;;;;4984355;28;20073;-76
2023/03/08 12:07:56;;;;;;;5.13;1.08;;;;;;;;;;4985898;28;20031;-77
2023/03/08 12:10:24;;;;;;;1.92;0.52;;;;;;;;;;4988389;28;20026;-77
2023/03/08 12:12:54;;;;;;;4.00;0.75;;;;;;;;;;4984636;28;20037;-77
2023/03/08 12:15:26;;;;;;;1.65;0.65;;;;;;;;;;4987739;28;20031;-75
2023/03/08 12:18:05;;;;;;;4.82;0.95;;;;;;;;;;4975401;28;20490;-75
2023/03/08 12:20:36;;;;;;;7.90;3.35;;;;;;;;;;4982221;28;20435;-75
2023/03/08 12:23:02;;;;;;;7.72;5.20;;;;;;;;;;4973657;28;20018;-76
2023/03/08 12:25:28;;;;;;;3.40;0.80;;;;;;;;;;4982466;28;20078;-81
2023/03/08 12:28:06;;;;;;;1.15;0.50;;;;;;;;;;4983448;28;20499;-80
2023/03/08 12:30:32;;;;;;;1.92;0.77;;;;;;;;;;4987984;28;20073;-76
2023/03/08 12:32:59;;;;;;;1.67;0.80;;;;;;;;;;4982175;28;20073;-80
2023/03/08 12:35:25;;;;;;;2.55;1.27;;;;;;;;;;4984318;28;20026;-80
2023/03/08 12:37:55;;;;;;;2.60;0.80;;;;;;;;;;4982333;28;20089;-80
2023/03/08 12:40:27;;;;;;;5.35;1.02;;;;;;;;;;4988004;28;20026;-79
2023/03/08 12:43:03;;;;;;;1.90;0.80;;;;;;;;;;4978970;28;20039;-80
2023/03/08 12:45:32;;;;;;;2.97;0.70;;;;;;;;;;4986224;28;20022;-78
2023/03/08 12:48:01;;;;;;;2.90;0.80;;;;;;;;;;4989998;28;20041;-79
2023/03/08 12:50:27;;;;;;;2.60;0.90;;;;;;;;;;4989670;28;20231;-79
2023/03/08 12:52:55;;;;;;;3.33;0.80;;;;;;;;;;4972962;28;20054;-80
2023/03/08 12:55:30;;;;;;;0.98;0.77;;;;;;;;;;4983895;28;21237;-79
2023/03/08 12:57:58;;;;;;;3.00;0.80;;;;;;;;;;4990881;28;20039;-80
2023/03/08 13:00:26;;;;;;;1.90;0.60;;;;;;;;;;4988971;28;20089;-80
2023/03/08 13:03:25;;;;;;;3.28;0.82;;;;;;;;;;4977945;28;20051;-80
2023/03/08 13:05:51;;;;;;;4.90;1.00;;;;;;;;;;4924150;28;20077;-80
2023/03/08 13:08:25;;;;;;;4.03;0.80;;;;;;;;;;4988115;28;20061;-81
2023/03/08 13:10:51;;;;;;;4.55;0.90;;;;;;;;;;4993190;28;20388;-80
2023/03/08 13:13:17;;;;;;;5.28;1.08;;;;;;;;;;4993458;28;20545;-79
2023/03/08 13:15:43;;;;;;;1.38;0.60;;;;;;;;;;4986741;28;20106;-79
2023/03/08 13:18:10;;;;;;;2.53;0.55;;;;;;;;;;4983726;28;20355;-79
2023/03/08 13:20:39;;;;;;;1.75;0.60;;;;;;;;;;4995484;28;20026;-79
2023/03/08 13:23:17;;;;;;;4.85;0.60;;;;;;;;;;4992899;28;20037;-80
2023/03/08 13:25:59;;;;;;;4.85;1.30;;;;;;;;;;4993901;28;20030;-78
2023/03/08 13:28:26;;;;;;;3.40;1.02;;;;;;;;;;4992959;28;20038;-78
2023/03/08 13:31:12;;;;;;;3.97;0.90;;;;;;;;;;4988250;28;20060;-78
2023/03/08 13:33:40;;;;;;;1.58;0.47;;;;;;;;;;4979791;28;20046;-78
2023/03/08 13:36:14;;;;;;;7.22;1.33;;;;;;;;;;4993865;28;20026;-78
2023/03/08 13:38:40;;;;;;;3.10;0.70;;;;;;;;;;4977809;28;20030;-76
2023/03/08 13:41:08;;;;;;;2.45;0.80;;;;;;;;;;4991141;28;20165;-77
2023/03/08 13:43:35;;;;;;;2.60;0.70;;;;;;;;;;4991790;28;20022;-77
2023/03/08 13:46:10;;;;;;;3.72;0.95;;;;;;;;;;4969786;28;20069;-76
2023/03/08 13:48:36;;;;;;;2.17;0.70;;;;;;;;;;4979905;28;20038;-76
2023/03/08 13:51:02;;;;;;;3.03;0.70;;;;;;;;;;4993664;28;20033;-76
2023/03/08 13:53:34;;;;;;;3.95;0.57;;;;;;;;;;4994626;28;20445;-76
2023/03/08 13:56:01;;;;;;;4.57;0.60;;;;;;;;;;4990264;28;20132;-76
2023/03/08 13:58:38;;;;;;;2.78;0.57;;;;;;;;;;4993566;28;20041;-77
2023/03/08 14:01:12;;;;;;;3.05;0.57;;;;;;;;;;4986672;28;20035;-77
2023/03/08 14:03:38;;;;;;;0.82;0.75;;;;;;;;;;4973940;28;20132;-76
2023/03/08 14:06:15;;;;;;;1.23;0.60;;;;;;;;;;4993214;28;20034;-77
2023/03/08 14:08:41;;;;;;;2.80;0.90;;;;;;;;;;4989692;28;20041;-77
2023/03/08 14:11:14;;;;;;;1.85;0.85;;;;;;;;;;4991064;28;20038;-76
2023/03/08 14:13:41;;;;;;;3.38;0.98;;;;;;;;;;5002192;28;20089;-76
2023/03/08 14:16:08;;;;;;;3.92;0.90;;;;;;;;;;4978370;28;20061;-77
2023/03/08 14:18:35;;;;;;;3.42;0.95;;;;;;;;;;4994169;28;20375;-76
2023/03/08 14:21:02;;;;;;;1.17;0.70;;;;;;;;;;4973201;28;20034;-76
2023/03/08 14:23:28;;;;;;;2.03;0.77;;;;;;;;;;4991328;28;22167;-75
2023/03/08 14:25:57;;;;;;;1.55;0.88;;;;;;;;;;4993870;28;20126;-76
2023/03/08 14:28:33;;;;;;;2.72;1.08;;;;;;;;;;4994181;28;20471;-76
2023/03/08 14:30:59;;;;;;;0.82;0.65;;;;;;;;;;4986455;28;20033;-74
2023/03/08 14:33:27;;;;;;;1.25;0.88;;;;;;;;;;4965549;28;20409;-74
2023/03/08 14:35:57;;;;;;;3.47;1.13;;;;;;;;;;4969090;28;20034;-74
2023/03/08 14:38:24;;;;;;;3.65;0.90;;;;;;;;;;4973913;28;20081;-74
2023/03/08 14:40:51;;;;;;;2.28;0.80;;;;;;;;;;4975803;28;20039;-74
2023/03/08 14:43:22;;;;;;;1.58;0.93;;;;;;;;;;4987703;28;20030;-74
2023/03/08 14:46:02;;;;;;;3.10;1.10;;;;;;;;;;4990169;28;20712;-74
2023/03/08 14:48:37;;;;;;;1.40;0.68;;;;;;;;;;4993208;28;20169;-74
2023/03/08 14:51:05;;;;;;;4.15;0.82;;;;;;;;;;4990942;28;20090;-74